East Durham, North Carolina
Current Conditions -  °F | °C
As of 9:51 PM on Saturday 25 Oct 2014 (Local Time) from KRDU Reporting Station
Few Clouds Few Clouds  
Wind Chill: 52°   Ceiling: Unl
Heat Index: 52°   Visibility: 10mi
Dew Point: 45°   Wind: 6mph
Humidity: 77%   Direction: 240°WSW
Pressure: 29.9"   Gusts: NA
Location:  35.9655°N, 78.8009°W
Report Text: KRDU 260151Z 24005KT 10SM FEW250 11/07 A2990 RMK AO2 SLP123 T01110072 $
Loading
Personal Weather Stations






























Interactive Weather Map
Tropical Storm Tracking
New forecast layout! Learn more

10-Day Weather Forecast

Advertisements
Track Severe Weather on mobile